createdAt,value
2023-04-15T00:01:41.081Z,100494.59
2023-04-15T00:04:09.426Z,100498.06
2023-04-15T00:06:38.024Z,100515.53
2023-04-15T00:09:06.040Z,100519.47
2023-04-15T00:11:33.893Z,100521.53
2023-04-15T00:14:01.737Z,100521.16
2023-04-15T00:16:29.674Z,100527.88
2023-04-15T00:18:57.351Z,100523.56
2023-04-15T00:21:25.187Z,100520.94
2023-04-15T00:23:53.853Z,100531.28
2023-04-15T00:26:21.623Z,100540.97
2023-04-15T00:28:50.548Z,100532.97
2023-04-15T00:31:18.388Z,100534.72
2023-04-15T00:33:47.442Z,100535.22
2023-04-15T00:36:15.709Z,100549.19
2023-04-15T00:38:43.449Z,100548.66
2023-04-15T00:41:11.519Z,100553.72
2023-04-15T00:43:45.229Z,100547.78
2023-04-15T00:46:15.282Z,100552.75
2023-04-15T00:48:44.216Z,100561.91
2023-04-15T00:51:19.984Z,100555.69
2023-04-15T00:53:47.809Z,100566.22
2023-04-15T00:56:16.160Z,100562.19
2023-04-15T00:58:43.897Z,100569.91
2023-04-15T01:01:12.879Z,100570.06
2023-04-15T01:03:40.810Z,100567.63
2023-04-15T01:06:08.853Z,100569.69
2023-04-15T01:08:39.713Z,100583.53
2023-04-15T01:11:07.937Z,100579.00
2023-04-15T01:13:36.846Z,100584.16
2023-04-15T01:16:04.913Z,100582.25
2023-04-15T01:18:32.938Z,100586.75
2023-04-15T01:21:02.507Z,100589.97
2023-04-15T01:23:30.506Z,100596.69
2023-04-15T01:25:58.683Z,100593.38
2023-04-15T01:28:27.233Z,100600.50
2023-04-15T01:31:12.669Z,100601.53
2023-04-15T01:33:42.435Z,100604.03
2023-04-15T01:36:28.670Z,100601.75
2023-04-15T01:38:57.343Z,100601.50
2023-04-15T01:41:28.938Z,100602.97
2023-04-15T01:43:57.976Z,100603.72
2023-04-15T01:46:28.906Z,100618.56
2023-04-15T01:48:58.240Z,100607.34
2023-04-15T01:51:28.454Z,100628.16
2023-04-15T01:53:57.461Z,100604.50
2023-04-15T01:56:26.739Z,100620.75
2023-04-15T01:58:55.905Z,100623.41
2023-04-15T02:01:25.105Z,100628.06
2023-04-15T02:03:54.298Z,100622.84
2023-04-15T02:06:23.601Z,100626.63
2023-04-15T02:08:52.620Z,100643.53
2023-04-15T02:11:23.146Z,100642.16
2023-04-15T02:13:52.494Z,100636.97
2023-04-15T02:16:22.182Z,100655.44
2023-04-15T02:18:52.216Z,100640.59
2023-04-15T02:21:21.488Z,100642.66
2023-04-15T02:23:52.287Z,100652.69
2023-04-15T02:26:23.065Z,100654.00
2023-04-15T02:28:52.120Z,100657.50
2023-04-15T02:31:21.896Z,100662.53
2023-04-15T02:33:51.189Z,100656.31
2023-04-15T02:36:21.438Z,100669.78
2023-04-15T02:38:50.794Z,100686.06
2023-04-15T02:41:20.528Z,100675.56
2023-04-15T02:43:49.596Z,100678.56
2023-04-15T02:46:18.701Z,100682.19
2023-04-15T02:48:47.878Z,100679.59
2023-04-15T02:51:21.775Z,100691.41
2023-04-15T02:53:51.108Z,100687.34
2023-04-15T02:56:20.489Z,100693.13
2023-04-15T02:58:52.623Z,100684.41
2023-04-15T03:01:22.242Z,100708.53
2023-04-15T03:03:51.307Z,100696.03
2023-04-15T03:06:20.776Z,100691.25
2023-04-15T03:08:52.403Z,100705.06
2023-04-15T03:11:22.137Z,100713.84
2023-04-15T03:13:51.183Z,100714.41
2023-04-15T03:16:34.419Z,100698.34
2023-04-15T03:19:04.135Z,100713.59
2023-04-15T03:21:38.548Z,100710.94
2023-04-15T03:24:07.706Z,100714.56
2023-04-15T03:26:38.069Z,100720.91
2023-04-15T03:29:14.338Z,100708.13
2023-04-15T03:31:46.389Z,100708.97
2023-04-15T03:34:15.536Z,100728.16
2023-04-15T03:36:44.620Z,100724.69
2023-04-15T03:39:13.759Z,100722.34
2023-04-15T03:41:42.732Z,100728.16
2023-04-15T03:44:11.797Z,100718.38
2023-04-15T03:46:41.301Z,100704.25
2023-04-15T03:49:10.917Z,100733.69
2023-04-15T03:51:42.624Z,100734.47
2023-04-15T03:54:13.112Z,100721.63
2023-04-15T03:56:42.201Z,100729.03
2023-04-15T03:59:11.584Z,100731.19
2023-04-15T04:01:40.647Z,100732.44
2023-04-15T04:04:09.807Z,100733.38
2023-04-15T04:06:38.916Z,100734.66
2023-04-15T04:09:07.980Z,100732.31
2023-04-15T04:11:37.767Z,100730.81
2023-04-15T04:14:07.593Z,100735.13
2023-04-15T04:16:36.885Z,100738.09
2023-04-15T04:19:06.488Z,100738.00
2023-04-15T04:21:36.635Z,100735.88
2023-04-15T04:24:05.879Z,100734.34
2023-04-15T04:26:34.911Z,100740.00
2023-04-15T04:29:06.625Z,100722.56
2023-04-15T04:31:35.880Z,100745.84
2023-04-15T04:34:04.934Z,100750.00
2023-04-15T04:36:34.037Z,100746.47
2023-04-15T04:39:03.381Z,100737.38
2023-04-15T04:41:32.630Z,100743.31
2023-04-15T04:44:02.023Z,100746.44
2023-04-15T04:46:31.074Z,100729.94
2023-04-15T04:49:00.162Z,100732.69
2023-04-15T04:51:29.331Z,100750.44
2023-04-15T04:53:58.973Z,100743.06
2023-04-15T04:56:28.232Z,100764.75
2023-04-15T04:58:57.281Z,100755.41
2023-04-15T05:01:27.665Z,100754.63
2023-04-15T05:03:59.270Z,100742.47
2023-04-15T05:06:30.682Z,100754.50
2023-04-15T05:09:00.029Z,100772.03
2023-04-15T05:11:30.011Z,100756.13
2023-04-15T05:14:01.776Z,100774.59
2023-04-15T05:16:30.993Z,100759.25
2023-04-15T05:19:00.449Z,100752.84
2023-04-15T05:21:29.890Z,100766.97
2023-04-15T05:23:59.092Z,100750.72
2023-04-15T05:26:28.436Z,100741.66
2023-04-15T05:28:57.687Z,100757.53
2023-04-15T05:31:26.906Z,100760.03
2023-04-15T05:33:56.010Z,100775.03
2023-04-15T05:36:25.235Z,100775.44
2023-04-15T05:38:54.368Z,100767.06
2023-04-15T05:41:23.508Z,100759.91
2023-04-15T05:43:52.554Z,100772.66
2023-04-15T05:46:21.980Z,100773.78
2023-04-15T05:48:51.119Z,100783.34
2023-04-15T05:51:20.218Z,100773.63
2023-04-15T05:53:49.183Z,100772.94
2023-04-15T05:56:18.204Z,100778.91
2023-04-15T05:58:47.333Z,100775.38
2023-04-15T06:01:17.298Z,100775.34
2023-04-15T06:03:46.658Z,100783.59
2023-04-15T06:06:16.109Z,100773.91
2023-04-15T06:08:45.139Z,100782.91
2023-04-15T06:11:14.404Z,100775.81
2023-04-15T06:13:46.944Z,100790.91
2023-04-15T06:16:16.145Z,100779.06
2023-04-15T06:18:45.448Z,100775.41
2023-04-15T06:21:14.576Z,100795.09
2023-04-15T06:23:43.602Z,100781.50
2023-04-15T06:26:12.682Z,100786.50
2023-04-15T06:28:41.731Z,100777.38
2023-04-15T06:31:11.127Z,100781.66
2023-04-15T06:33:40.326Z,100785.63
2023-04-15T06:36:12.499Z,100775.66
2023-04-15T06:38:41.632Z,100790.16
2023-04-15T06:41:11.071Z,100778.50
2023-04-15T06:43:40.342Z,100786.97
2023-04-15T06:46:09.520Z,100786.78
2023-04-15T06:48:39.004Z,100795.78
2023-04-15T06:51:08.083Z,100788.91
2023-04-15T06:53:41.213Z,100783.91
2023-04-15T06:56:10.085Z,100813.03
2023-04-15T06:58:39.153Z,100792.97
2023-04-15T07:01:08.330Z,100807.53
2023-04-15T07:03:37.378Z,100802.13
2023-04-15T07:06:07.329Z,100796.03
2023-04-15T07:08:36.914Z,100796.50
2023-04-15T07:11:06.372Z,100789.00
2023-04-15T07:13:35.689Z,100785.97
2023-04-15T07:16:04.914Z,100789.16
2023-04-15T07:18:34.074Z,100801.63
2023-04-15T07:21:03.460Z,100775.19
2023-04-15T07:23:32.744Z,100794.50
2023-04-15T07:26:01.926Z,100790.97
2023-04-15T07:28:30.919Z,100794.63
2023-04-15T07:31:00.064Z,100791.09
2023-04-15T07:33:29.181Z,100795.34
2023-04-15T07:35:58.293Z,100802.28
2023-04-15T07:38:27.513Z,100794.34
2023-04-15T07:40:56.906Z,100793.41
2023-04-15T07:43:25.959Z,100788.22
2023-04-15T07:45:55.703Z,100778.13
2023-04-15T07:48:43.938Z,100783.69
2023-04-15T07:51:13.251Z,100783.75
2023-04-15T07:53:42.661Z,100781.00
2023-04-15T07:56:11.994Z,100789.63
2023-04-15T07:58:41.467Z,100801.34
2023-04-15T08:01:10.476Z,100795.69
2023-04-15T08:03:40.002Z,100793.56
2023-04-15T08:06:09.621Z,100787.28
2023-04-15T08:08:38.590Z,100809.63
2023-04-15T08:11:07.667Z,100782.56
2023-04-15T08:13:37.430Z,100797.88
2023-04-15T08:16:14.495Z,100793.28
2023-04-15T08:18:43.558Z,100792.78
2023-04-15T08:21:12.620Z,100806.25
2023-04-15T08:23:44.311Z,100802.66
2023-04-15T08:26:15.251Z,100775.00
2023-04-15T08:28:45.275Z,100795.78
2023-04-15T08:31:15.554Z,100796.44
2023-04-15T08:33:44.675Z,100794.91
2023-04-15T08:36:14.223Z,100785.84
2023-04-15T08:38:45.039Z,100796.91
2023-04-15T08:41:25.647Z,100777.50
2023-04-15T08:43:58.904Z,100777.00
2023-04-15T08:46:27.993Z,100783.63
2023-04-15T08:48:58.362Z,100780.00
2023-04-15T08:51:27.847Z,100790.28
2023-04-15T08:53:57.071Z,100782.16
2023-04-15T08:56:27.192Z,100784.50
2023-04-15T08:58:56.444Z,100771.69
2023-04-15T09:01:25.810Z,100770.53
2023-04-15T09:03:57.314Z,100771.41
2023-04-15T09:06:27.212Z,100774.41
2023-04-15T09:08:56.390Z,100776.78
2023-04-15T09:11:25.881Z,100773.13
2023-04-15T09:13:54.911Z,100774.47
2023-04-15T09:16:24.198Z,100766.09
2023-04-15T09:18:54.455Z,100769.66
2023-04-15T09:21:24.090Z,100763.06
2023-04-15T09:23:57.697Z,100767.72
2023-04-15T09:26:37.981Z,100763.16
2023-04-15T09:29:09.364Z,100755.50
2023-04-15T09:31:39.126Z,100766.22
2023-04-15T09:34:08.333Z,100781.69
2023-04-15T09:36:51.964Z,100773.75
2023-04-15T09:39:24.197Z,100768.75
2023-04-15T09:42:07.722Z,100761.06
2023-04-15T09:44:36.862Z,100759.28
2023-04-15T09:47:06.509Z,100762.50
2023-04-15T09:49:35.746Z,100754.03
2023-04-15T09:52:06.506Z,100756.41
2023-04-15T09:54:37.915Z,100752.31
2023-04-15T09:57:08.788Z,100753.47
2023-04-15T09:59:37.966Z,100771.31
2023-04-15T10:02:07.796Z,100755.72
2023-04-15T10:04:40.902Z,100764.72
2023-04-15T10:07:12.464Z,100750.41
2023-04-15T10:09:41.623Z,100758.97
2023-04-15T10:12:10.718Z,100751.59
2023-04-15T10:14:44.216Z,100746.31
2023-04-15T10:17:13.941Z,100748.63
2023-04-15T10:19:43.018Z,100738.34
2023-04-15T10:22:12.207Z,100748.94
2023-04-15T10:24:41.493Z,100758.44
2023-04-15T10:27:11.094Z,100750.09
2023-04-15T10:29:40.585Z,100744.09
2023-04-15T10:32:10.094Z,100749.91
2023-04-15T10:34:39.230Z,100740.00
2023-04-15T10:37:11.832Z,100752.13
2023-04-15T10:39:43.330Z,100743.59
2023-04-15T10:42:15.445Z,100742.75
2023-04-15T10:44:51.003Z,100750.50
2023-04-15T10:47:21.890Z,100748.31
2023-04-15T10:49:52.883Z,100747.47
2023-04-15T10:52:27.735Z,100739.13
2023-04-15T10:55:16.122Z,100736.94
2023-04-15T10:57:45.621Z,100739.72
2023-04-15T11:00:16.018Z,100742.63
2023-04-15T11:03:07.048Z,100745.66
2023-04-15T11:05:42.670Z,100740.06
2023-04-15T11:08:12.854Z,100735.00
2023-04-15T11:10:41.836Z,100743.47
2023-04-15T11:13:11.090Z,100754.47
2023-04-15T11:15:41.810Z,100735.97
2023-04-15T11:18:13.660Z,100725.63
2023-04-15T11:20:50.875Z,100741.56
2023-04-15T11:23:28.161Z,100739.59
2023-04-15T11:25:58.068Z,100735.72
2023-04-15T11:28:28.257Z,100728.84
2023-04-15T11:30:57.668Z,100727.75
2023-04-15T11:33:27.158Z,100726.44
2023-04-15T11:35:56.188Z,100715.91
2023-04-15T11:38:25.460Z,100715.47
2023-04-15T11:40:54.580Z,100723.03
2023-04-15T11:43:24.004Z,100708.19
2023-04-15T11:45:57.472Z,100716.16
2023-04-15T11:48:31.624Z,100705.38
2023-04-15T11:51:07.863Z,100702.34
2023-04-15T11:53:43.118Z,100709.44
2023-04-15T11:56:18.150Z,100718.31
2023-04-15T11:58:46.720Z,100705.16
2023-04-15T12:01:14.652Z,100697.53
2023-04-15T12:03:44.557Z,100696.69
2023-04-15T12:06:20.532Z,100691.28
2023-04-15T12:08:55.614Z,100699.44
2023-04-15T12:11:45.976Z,100688.44
2023-04-15T12:14:31.432Z,100691.25
2023-04-15T12:17:04.931Z,100687.63
2023-04-15T12:19:42.058Z,100696.91
2023-04-15T12:22:14.404Z,100693.00
2023-04-15T12:24:49.767Z,100691.09
2023-04-15T12:27:23.138Z,100700.34
2023-04-15T12:30:05.393Z,100689.34
2023-04-15T12:32:36.631Z,100693.47
2023-04-15T12:35:05.372Z,100694.75
2023-04-15T12:37:33.106Z,100706.19
2023-04-15T12:40:01.119Z,100686.97
2023-04-15T12:42:32.535Z,100693.66
2023-04-15T12:45:00.233Z,100707.03
2023-04-15T12:47:28.032Z,100701.22
2023-04-15T12:49:55.727Z,100704.50
2023-04-15T12:52:24.564Z,100699.25
2023-04-15T12:54:55.035Z,100692.59
2023-04-15T12:57:22.887Z,100692.59
2023-04-15T12:59:50.686Z,100686.38
2023-04-15T13:02:18.919Z,100683.56
2023-04-15T13:04:46.825Z,100679.91
2023-04-15T13:07:15.863Z,100676.47
2023-04-15T13:09:44.212Z,100682.06
2023-04-15T13:12:13.920Z,100687.88
2023-04-15T13:14:42.091Z,100692.19
2023-04-15T13:17:10.472Z,100696.75
2023-04-15T13:19:39.255Z,100690.03
2023-04-15T13:22:08.484Z,100687.44
2023-04-15T13:24:36.377Z,100683.31
2023-04-15T13:27:04.630Z,100684.78
2023-04-15T13:29:32.937Z,100694.47
2023-04-15T13:32:01.679Z,100691.88
2023-04-15T13:34:29.482Z,100693.34
2023-04-15T13:36:57.155Z,100699.81
2023-04-15T13:39:24.891Z,100680.84
2023-04-15T13:41:52.655Z,100689.03
2023-04-15T13:44:22.076Z,100675.44
2023-04-15T13:46:53.075Z,100694.19
2023-04-15T13:49:21.147Z,100686.25
2023-04-15T13:51:49.020Z,100692.25
2023-04-15T13:54:16.888Z,100683.81
2023-04-15T13:56:44.709Z,100679.28
2023-04-15T13:59:13.238Z,100691.38
2023-04-15T14:01:41.594Z,100681.88
2023-04-15T14:04:10.865Z,100677.59
2023-04-15T14:06:38.907Z,100675.44
2023-04-15T14:09:15.938Z,100678.69
2023-04-15T14:11:43.679Z,100676.72
2023-04-15T14:14:16.229Z,100678.88
2023-04-15T14:16:44.180Z,100682.56
2023-04-15T14:19:11.987Z,100679.09
2023-04-15T14:21:46.043Z,100687.47
2023-04-15T14:24:25.886Z,100678.88
2023-04-15T14:27:00.442Z,100687.91
2023-04-15T14:29:28.687Z,100669.56
2023-04-15T14:32:11.468Z,100677.53
2023-04-15T14:34:43.908Z,100685.94
2023-04-15T14:37:11.972Z,100684.63
2023-04-15T14:39:43.050Z,100679.25
2023-04-15T14:42:13.854Z,100691.53
2023-04-15T14:44:50.715Z,100683.31
2023-04-15T14:47:18.857Z,100673.19
2023-04-15T14:49:46.735Z,100670.38
2023-04-15T14:52:17.027Z,100682.22
2023-04-15T14:54:44.799Z,100672.97
2023-04-15T14:57:12.589Z,100680.03
2023-04-15T14:59:40.444Z,100661.31
2023-04-15T15:02:08.867Z,100670.09
2023-04-15T15:04:42.864Z,100655.66
2023-04-15T15:07:19.479Z,100664.25
2023-04-15T15:09:47.390Z,100656.88
2023-04-15T15:12:15.304Z,100668.56
2023-04-15T15:14:43.153Z,100676.31
2023-04-15T15:17:11.141Z,100664.00
2023-04-15T15:19:39.391Z,100668.09
2023-04-15T15:22:09.743Z,100670.66
2023-04-15T15:24:37.435Z,100671.69
2023-04-15T15:27:05.437Z,100677.47
2023-04-15T15:29:33.280Z,100665.19
2023-04-15T15:32:01.205Z,100661.28
2023-04-15T15:34:33.865Z,100673.94
2023-04-15T15:37:01.854Z,100662.31
2023-04-15T15:39:31.756Z,100668.59
2023-04-15T15:42:02.461Z,100662.09
2023-04-15T15:44:32.528Z,100673.91
2023-04-15T15:47:05.828Z,100664.56
2023-04-15T15:49:33.896Z,100663.69
2023-04-15T15:52:04.222Z,100659.63
2023-04-15T15:54:32.089Z,100655.97
2023-04-15T15:56:59.821Z,100657.03
2023-04-15T15:59:28.186Z,100658.72
2023-04-15T16:01:56.126Z,100668.34
2023-04-15T16:04:24.201Z,100660.88
2023-04-15T16:06:53.458Z,100668.19
2023-04-15T16:09:21.680Z,100662.13
2023-04-15T16:11:49.472Z,100661.66
2023-04-15T16:14:27.521Z,100664.41
2023-04-15T16:16:55.514Z,100672.69
2023-04-15T16:19:26.618Z,100669.63
2023-04-15T16:21:54.797Z,100671.69
2023-04-15T16:24:22.833Z,100665.38
2023-04-15T16:26:50.728Z,100671.69
2023-04-15T16:29:18.462Z,100672.69
2023-04-15T16:31:47.559Z,100677.16
2023-04-15T16:34:16.220Z,100669.38
2023-04-15T16:36:44.151Z,100667.91
2023-04-15T16:39:11.818Z,100668.56
2023-04-15T16:41:39.681Z,100673.03
2023-04-15T16:44:09.033Z,100667.59
2023-04-15T16:46:37.366Z,100674.41
2023-04-15T16:49:06.711Z,100675.88
2023-04-15T16:51:34.773Z,100683.41
2023-04-15T16:54:02.716Z,100672.16
2023-04-15T16:56:30.627Z,100682.25
2023-04-15T16:58:58.454Z,100679.53
2023-04-15T17:01:26.503Z,100678.94
2023-04-15T17:03:56.017Z,100687.38
2023-04-15T17:06:26.891Z,100672.84
2023-04-15T17:08:56.953Z,100687.94
2023-04-15T17:11:24.777Z,100691.53
2023-04-15T17:13:52.862Z,100688.66
2023-04-15T17:16:22.450Z,100681.94
2023-04-15T17:18:54.727Z,100686.06
2023-04-15T17:21:29.960Z,100692.53
2023-04-15T17:24:01.903Z,100688.16
2023-04-15T17:26:50.253Z,100693.88
2023-04-15T17:29:19.129Z,100695.16
2023-04-15T17:31:52.304Z,100699.22
2023-04-15T17:34:50.713Z,100700.94
2023-04-15T17:37:38.965Z,100697.66
2023-04-15T17:40:26.511Z,100708.53
2023-04-15T17:43:14.138Z,100695.06
2023-04-15T17:46:05.522Z,100700.34
2023-04-15T17:48:53.143Z,100713.00
2023-04-15T17:51:40.777Z,100712.59
2023-04-15T17:54:31.086Z,100695.47
2023-04-15T17:57:18.652Z,100707.66
2023-04-15T18:00:07.172Z,100709.78
2023-04-15T18:03:00.246Z,100713.44
2023-04-15T18:05:48.189Z,100708.34
2023-04-15T18:08:38.448Z,100712.84
2023-04-15T18:11:26.154Z,100710.75
2023-04-15T18:14:15.707Z,100704.78
2023-04-15T18:17:11.230Z,100702.53
2023-04-15T18:19:58.841Z,100703.63
2023-04-15T18:22:26.876Z,100713.72
2023-04-15T18:24:54.850Z,100719.13
2023-04-15T18:27:22.833Z,100709.19
2023-04-15T18:29:51.315Z,100719.00
2023-04-15T18:32:21.432Z,100723.28
2023-04-15T18:34:49.320Z,100724.72
2023-04-15T18:37:17.183Z,100728.97
2023-04-15T18:39:45.290Z,100728.38
2023-04-15T18:42:13.673Z,100716.44
2023-04-15T18:44:41.479Z,100728.00
2023-04-15T18:47:10.287Z,100737.25
2023-04-15T18:49:38.069Z,100722.91
2023-04-15T18:52:06.691Z,100736.38
2023-04-15T18:54:34.357Z,100736.44
2023-04-15T18:57:04.037Z,100737.03
2023-04-15T18:59:34.731Z,100745.78
2023-04-15T19:02:06.577Z,100743.56
2023-04-15T19:04:34.373Z,100734.22
2023-04-15T19:07:02.243Z,100742.28
2023-04-15T19:09:29.987Z,100743.16
2023-04-15T19:11:58.014Z,100736.41
2023-04-15T19:14:25.955Z,100743.03
2023-04-15T19:16:53.772Z,100739.38
2023-04-15T19:19:21.498Z,100748.31
2023-04-15T19:21:50.446Z,100746.78
2023-04-15T19:24:18.410Z,100747.16
2023-04-15T19:26:48.916Z,100753.97
2023-04-15T19:29:17.081Z,100747.41
2023-04-15T19:31:45.184Z,100754.03
2023-04-15T19:34:12.874Z,100753.75
2023-04-15T19:36:40.937Z,100752.00
2023-04-15T19:39:09.341Z,100761.41
2023-04-15T19:41:38.787Z,100765.63
2023-04-15T19:44:06.962Z,100757.81
2023-04-15T19:46:34.758Z,100752.25
2023-04-15T19:49:03.317Z,100764.06
2023-04-15T19:51:31.909Z,100765.31
2023-04-15T19:53:59.750Z,100764.84
2023-04-15T19:56:32.373Z,100768.66
2023-04-15T19:59:02.216Z,100769.03
2023-04-15T20:01:30.073Z,100766.44
2023-04-15T20:03:58.157Z,100766.63
2023-04-15T20:06:27.533Z,100769.41
2023-04-15T20:08:55.568Z,100768.53
2023-04-15T20:12:46.036Z,100771.69
2023-04-15T20:14:17.847Z,100782.16
2023-04-15T20:16:48.426Z,100776.78
2023-04-15T20:19:16.256Z,100769.16
2023-04-15T20:21:44.095Z,100777.31
2023-04-15T20:24:11.911Z,100775.03
2023-04-15T20:26:39.598Z,100774.34
2023-04-15T20:29:07.564Z,100777.81
2023-04-15T20:31:36.395Z,100787.75
2023-04-15T20:34:06.560Z,100775.53
2023-04-15T20:36:34.428Z,100777.66
2023-04-15T20:39:02.363Z,100792.06
2023-04-15T20:41:30.178Z,100791.38
2023-04-15T20:43:57.972Z,100796.75
2023-04-15T20:46:27.291Z,100792.25
2023-04-15T20:48:55.978Z,100797.50
2023-04-15T20:51:27.510Z,100787.59
2023-04-15T20:53:58.302Z,100796.81
2023-04-15T20:56:26.111Z,100799.59
2023-04-15T20:58:53.791Z,100810.75
2023-04-15T21:01:21.706Z,100800.16
2023-04-15T21:03:49.727Z,100806.78
2023-04-15T21:06:18.028Z,100812.72
2023-04-15T21:08:46.489Z,100816.72
2023-04-15T21:11:24.307Z,100807.88
2023-04-15T21:14:02.085Z,100800.06
2023-04-15T21:16:31.849Z,100809.47
2023-04-15T21:18:59.715Z,100812.06
2023-04-15T21:21:28.294Z,100809.28
2023-04-15T21:23:56.046Z,100809.13
2023-04-15T21:26:23.811Z,100807.09
2023-04-15T21:28:51.623Z,100805.91
2023-04-15T21:31:20.109Z,100804.34
2023-04-15T21:33:47.887Z,100817.38
2023-04-15T21:36:17.955Z,100813.78
2023-04-15T21:38:45.765Z,100814.16
2023-04-15T21:41:13.695Z,100819.38
2023-04-15T21:43:41.494Z,100820.63
2023-04-15T21:46:22.312Z,100824.09
2023-04-15T21:48:54.703Z,100825.31
2023-04-15T21:51:22.734Z,100828.13
2023-04-15T21:53:51.630Z,100836.66
2023-04-15T21:56:21.643Z,100832.84
2023-04-15T21:58:49.382Z,100833.72
2023-04-15T22:01:17.726Z,100841.38
2023-04-15T22:03:46.228Z,100839.63
2023-04-15T22:06:14.217Z,100842.75
2023-04-15T22:08:55.980Z,100832.69
2023-04-15T22:11:33.599Z,100827.81
2023-04-15T22:14:01.422Z,100836.16
2023-04-15T22:16:29.252Z,100840.34
2023-04-15T22:18:57.198Z,100833.56
2023-04-15T22:21:25.030Z,100836.00
2023-04-15T22:23:53.461Z,100841.22
2023-04-15T22:26:41.429Z,100846.63
2023-04-15T22:29:09.189Z,100845.22
2023-04-15T22:31:36.987Z,100850.63
2023-04-15T22:34:04.769Z,100841.25
2023-04-15T22:36:32.511Z,100842.81
2023-04-15T22:39:00.214Z,100849.41
2023-04-15T22:41:27.926Z,100859.13
2023-04-15T22:43:55.644Z,100862.78
2023-04-15T22:46:23.512Z,100862.09
2023-04-15T22:48:51.269Z,100862.59
2023-04-15T22:51:23.462Z,100852.22
2023-04-15T22:53:51.288Z,100860.88
2023-04-15T22:56:21.204Z,100861.56
2023-04-15T22:58:49.904Z,100865.75
2023-04-15T23:01:18.126Z,100858.09
2023-04-15T23:03:55.866Z,100855.81
2023-04-15T23:06:25.137Z,100858.25
2023-04-15T23:08:53.438Z,100860.00
2023-04-15T23:11:21.280Z,100864.81
2023-04-15T23:13:50.751Z,100863.97
2023-04-15T23:16:18.538Z,100871.44
2023-04-15T23:18:46.377Z,100868.81
2023-04-15T23:21:14.101Z,100883.06
2023-04-15T23:23:41.853Z,100882.50
2023-04-15T23:26:09.565Z,100883.56
2023-04-15T23:28:37.375Z,100892.19
2023-04-15T23:31:05.271Z,100876.91
2023-04-15T23:33:33.370Z,100888.53
2023-04-15T23:36:01.451Z,100888.88
2023-04-15T23:38:29.269Z,100887.84
2023-04-15T23:40:56.971Z,100889.75
2023-04-15T23:43:24.753Z,100889.94
2023-04-15T23:45:52.525Z,100895.81
2023-04-15T23:48:20.368Z,100897.19
2023-04-15T23:50:48.089Z,100893.88
2023-04-15T23:53:15.802Z,100907.44
2023-04-15T23:55:43.516Z,100901.00
2023-04-15T23:58:11.933Z,100905.66
